sensor_id;sensor_type;location;lat;lon;timestamp;pressure;altitude;pressure_sealevel;temperature;humidity
65394;BME280;52002;49.760;6.512;2022-07-15T00:01:39;100413.17;;;20.27;45.81
65394;BME280;52002;49.760;6.512;2022-07-15T00:04:04;100415.22;;;20.25;45.71
65394;BME280;52002;49.760;6.512;2022-07-15T00:06:30;100412.19;;;20.24;45.67
65394;BME280;52002;49.760;6.512;2022-07-15T00:08:56;100414.84;;;20.28;46.07
65394;BME280;52002;49.760;6.512;2022-07-15T00:11:22;100406.77;;;20.24;46.33
65394;BME280;52002;49.760;6.512;2022-07-15T00:13:48;100413.59;;;20.20;46.36
65394;BME280;52002;49.760;6.512;2022-07-15T00:16:14;100411.98;;;20.14;46.32
65394;BME280;52002;49.760;6.512;2022-07-15T00:18:40;100411.17;;;20.10;46.15
65394;BME280;52002;49.760;6.512;2022-07-15T00:21:07;100411.38;;;20.08;46.52
65394;BME280;52002;49.760;6.512;2022-07-15T00:23:33;100411.75;;;20.05;46.78
65394;BME280;52002;49.760;6.512;2022-07-15T00:25:59;100408.76;;;20.00;46.65
65394;BME280;52002;49.760;6.512;2022-07-15T00:28:24;100411.27;;;19.91;46.83
65394;BME280;52002;49.760;6.512;2022-07-15T00:30:51;100405.89;;;19.82;47.06
65394;BME280;52002;49.760;6.512;2022-07-15T00:33:17;100415.98;;;19.74;47.31
65394;BME280;52002;49.760;6.512;2022-07-15T00:35:43;100417.91;;;19.69;47.43
65394;BME280;52002;49.760;6.512;2022-07-15T00:38:10;100412.92;;;19.62;47.58
65394;BME280;52002;49.760;6.512;2022-07-15T00:40:48;100408.94;;;19.53;47.73
65394;BME280;52002;49.760;6.512;2022-07-15T00:43:16;100403.20;;;19.52;47.82
65394;BME280;52002;49.760;6.512;2022-07-15T00:45:44;100408.65;;;19.48;47.91
65394;BME280;52002;49.760;6.512;2022-07-15T00:48:11;100404.66;;;19.44;48.09
65394;BME280;52002;49.760;6.512;2022-07-15T00:50:38;100404.89;;;19.38;48.29
65394;BME280;52002;49.760;6.512;2022-07-15T00:53:10;100401.55;;;19.32;48.47
65394;BME280;52002;49.760;6.512;2022-07-15T00:55:43;100403.47;;;19.28;48.71
65394;BME280;52002;49.760;6.512;2022-07-15T00:58:18;100407.23;;;19.22;48.91
65394;BME280;52002;49.760;6.512;2022-07-15T01:00:47;100402.20;;;19.15;49.07
65394;BME280;52002;49.760;6.512;2022-07-15T01:03:16;100405.66;;;19.09;49.20
65394;BME280;52002;49.760;6.512;2022-07-15T01:05:43;100407.71;;;19.07;49.33
65394;BME280;52002;49.760;6.512;2022-07-15T01:08:11;100403.68;;;19.03;49.51
65394;BME280;52002;49.760;6.512;2022-07-15T01:10:39;100402.19;;;19.00;49.56
65394;BME280;52002;49.760;6.512;2022-07-15T01:13:06;100408.16;;;18.95;49.59
65394;BME280;52002;49.760;6.512;2022-07-15T01:15:33;100407.46;;;18.93;49.61
65394;BME280;52002;49.760;6.512;2022-07-15T01:18:00;100411.69;;;18.92;49.57
65394;BME280;52002;49.760;6.512;2022-07-15T01:20:28;100414.05;;;18.91;49.55
65394;BME280;52002;49.760;6.512;2022-07-15T01:22:56;100415.25;;;18.92;49.47
65394;BME280;52002;49.760;6.512;2022-07-15T01:25:22;100419.80;;;18.92;49.43
65394;BME280;52002;49.760;6.512;2022-07-15T01:27:48;100417.95;;;18.92;49.42
65394;BME280;52002;49.760;6.512;2022-07-15T01:30:14;100417.98;;;18.88;49.44
65394;BME280;52002;49.760;6.512;2022-07-15T01:32:39;100418.33;;;18.85;49.46
65394;BME280;52002;49.760;6.512;2022-07-15T01:35:06;100414.14;;;18.83;49.51
65394;BME280;52002;49.760;6.512;2022-07-15T01:37:33;100415.66;;;18.81;49.44
65394;BME280;52002;49.760;6.512;2022-07-15T01:39:58;100422.41;;;18.81;49.39
65394;BME280;52002;49.760;6.512;2022-07-15T01:42:24;100420.05;;;18.82;49.34
65394;BME280;52002;49.760;6.512;2022-07-15T01:44:50;100421.92;;;18.81;49.34
65394;BME280;52002;49.760;6.512;2022-07-15T01:47:16;100429.17;;;18.81;49.38
65394;BME280;52002;49.760;6.512;2022-07-15T01:49:42;100427.00;;;18.80;49.49
65394;BME280;52002;49.760;6.512;2022-07-15T01:52:08;100423.44;;;18.80;49.74
65394;BME280;52002;49.760;6.512;2022-07-15T01:54:36;100430.20;;;18.80;49.87
65394;BME280;52002;49.760;6.512;2022-07-15T01:57:02;100434.11;;;18.77;50.02
65394;BME280;52002;49.760;6.512;2022-07-15T01:59:28;100431.95;;;18.73;50.12
65394;BME280;52002;49.760;6.512;2022-07-15T02:01:55;100431.09;;;18.72;50.28
65394;BME280;52002;49.760;6.512;2022-07-15T02:04:21;100435.02;;;18.70;50.34
65394;BME280;52002;49.760;6.512;2022-07-15T02:06:48;100438.58;;;18.70;50.47
65394;BME280;52002;49.760;6.512;2022-07-15T02:09:14;100438.05;;;18.71;50.56
65394;BME280;52002;49.760;6.512;2022-07-15T02:11:41;100443.80;;;18.72;50.66
65394;BME280;52002;49.760;6.512;2022-07-15T02:14:08;100434.68;;;18.69;50.77
65394;BME280;52002;49.760;6.512;2022-07-15T02:16:34;100438.73;;;18.69;50.94
65394;BME280;52002;49.760;6.512;2022-07-15T02:19:01;100445.17;;;18.68;51.09
65394;BME280;52002;49.760;6.512;2022-07-15T02:21:27;100438.07;;;18.66;51.15
65394;BME280;52002;49.760;6.512;2022-07-15T02:23:54;100441.32;;;18.62;51.13
65394;BME280;52002;49.760;6.512;2022-07-15T02:26:21;100440.32;;;18.59;51.16
65394;BME280;52002;49.760;6.512;2022-07-15T02:28:47;100445.92;;;18.57;51.24
65394;BME280;52002;49.760;6.512;2022-07-15T02:31:13;100448.29;;;18.56;51.32
65394;BME280;52002;49.760;6.512;2022-07-15T02:33:40;100448.62;;;18.57;51.31
65394;BME280;52002;49.760;6.512;2022-07-15T02:36:08;100455.03;;;18.60;51.26
65394;BME280;52002;49.760;6.512;2022-07-15T02:38:34;100449.09;;;18.61;51.21
65394;BME280;52002;49.760;6.512;2022-07-15T02:41:00;100455.86;;;18.61;51.21
65394;BME280;52002;49.760;6.512;2022-07-15T02:43:26;100460.11;;;18.59;51.20
65394;BME280;52002;49.760;6.512;2022-07-15T02:45:52;100458.75;;;18.59;51.21
65394;BME280;52002;49.760;6.512;2022-07-15T02:48:18;100463.17;;;18.52;51.18
65394;BME280;52002;49.760;6.512;2022-07-15T02:50:43;100455.48;;;18.41;51.30
65394;BME280;52002;49.760;6.512;2022-07-15T02:53:10;100467.33;;;18.31;51.52
65394;BME280;52002;49.760;6.512;2022-07-15T02:55:36;100471.39;;;18.31;51.67
65394;BME280;52002;49.760;6.512;2022-07-15T02:58:02;100470.89;;;18.32;51.80
65394;BME280;52002;49.760;6.512;2022-07-15T03:00:28;100474.77;;;18.29;51.75
65394;BME280;52002;49.760;6.512;2022-07-15T03:02:54;100479.69;;;18.30;51.85
65394;BME280;52002;49.760;6.512;2022-07-15T03:05:20;100483.41;;;18.29;51.80
65394;BME280;52002;49.760;6.512;2022-07-15T03:07:46;100484.27;;;18.25;51.82
65394;BME280;52002;49.760;6.512;2022-07-15T03:10:12;100484.61;;;18.22;51.89
65394;BME280;52002;49.760;6.512;2022-07-15T03:12:38;100483.95;;;18.16;51.89
65394;BME280;52002;49.760;6.512;2022-07-15T03:15:06;100488.00;;;18.16;52.00
65394;BME280;52002;49.760;6.512;2022-07-15T03:17:32;100488.72;;;18.10;52.11
65394;BME280;52002;49.760;6.512;2022-07-15T03:19:58;100492.77;;;17.97;52.34
65394;BME280;52002;49.760;6.512;2022-07-15T03:22:25;100489.76;;;17.92;52.47
65394;BME280;52002;49.760;6.512;2022-07-15T03:24:53;100497.72;;;17.81;52.65
65394;BME280;52002;49.760;6.512;2022-07-15T03:27:19;100497.56;;;17.74;52.83
65394;BME280;52002;49.760;6.512;2022-07-15T03:29:45;100500.27;;;17.70;52.85
65394;BME280;52002;49.760;6.512;2022-07-15T03:32:11;100493.70;;;17.65;52.93
65394;BME280;52002;49.760;6.512;2022-07-15T03:34:39;100499.59;;;17.60;53.05
65394;BME280;52002;49.760;6.512;2022-07-15T03:37:05;100506.03;;;17.55;53.14
65394;BME280;52002;49.760;6.512;2022-07-15T03:39:31;100499.45;;;17.49;53.12
65394;BME280;52002;49.760;6.512;2022-07-15T03:41:56;100498.25;;;17.43;53.08
65394;BME280;52002;49.760;6.512;2022-07-15T03:44:22;100501.66;;;17.41;53.05
65394;BME280;52002;49.760;6.512;2022-07-15T03:46:48;100505.17;;;17.38;53.21
65394;BME280;52002;49.760;6.512;2022-07-15T03:49:15;100508.06;;;17.36;53.36
65394;BME280;52002;49.760;6.512;2022-07-15T03:51:43;100514.31;;;17.33;53.46
65394;BME280;52002;49.760;6.512;2022-07-15T03:54:09;100512.27;;;17.26;53.72
65394;BME280;52002;49.760;6.512;2022-07-15T03:56:36;100521.22;;;17.23;53.98
65394;BME280;52002;49.760;6.512;2022-07-15T03:59:02;100518.51;;;17.19;54.25
65394;BME280;52002;49.760;6.512;2022-07-15T04:01:29;100513.78;;;17.17;54.57
65394;BME280;52002;49.760;6.512;2022-07-15T04:03:55;100520.19;;;17.16;54.67
65394;BME280;52002;49.760;6.512;2022-07-15T04:06:22;100519.69;;;17.12;54.76
65394;BME280;52002;49.760;6.512;2022-07-15T04:08:50;100518.83;;;17.11;54.85
65394;BME280;52002;49.760;6.512;2022-07-15T04:11:17;100521.19;;;17.10;54.90
65394;BME280;52002;49.760;6.512;2022-07-15T04:13:44;100523.20;;;17.08;55.00
65394;BME280;52002;49.760;6.512;2022-07-15T04:16:10;100522.02;;;17.03;55.10
65394;BME280;52002;49.760;6.512;2022-07-15T04:18:39;100521.86;;;17.00;55.28
65394;BME280;52002;49.760;6.512;2022-07-15T04:21:06;100518.48;;;16.98;55.37
65394;BME280;52002;49.760;6.512;2022-07-15T04:23:32;100520.84;;;16.97;55.43
65394;BME280;52002;49.760;6.512;2022-07-15T04:25:58;100524.54;;;16.96;55.40
65394;BME280;52002;49.760;6.512;2022-07-15T04:28:25;100524.54;;;16.96;55.42
65394;BME280;52002;49.760;6.512;2022-07-15T04:30:51;100527.53;;;16.93;55.54
65394;BME280;52002;49.760;6.512;2022-07-15T04:33:18;100531.23;;;16.92;55.66
65394;BME280;52002;49.760;6.512;2022-07-15T04:35:45;100525.53;;;16.91;55.78
65394;BME280;52002;49.760;6.512;2022-07-15T04:38:11;100525.19;;;16.90;55.88
65394;BME280;52002;49.760;6.512;2022-07-15T04:40:38;100526.20;;;16.89;55.97
65394;BME280;52002;49.760;6.512;2022-07-15T04:43:08;100527.03;;;16.89;56.00
65394;BME280;52002;49.760;6.512;2022-07-15T04:45:34;100532.08;;;16.88;56.03
65394;BME280;52002;49.760;6.512;2022-07-15T04:48:01;100540.34;;;16.87;56.13
65394;BME280;52002;49.760;6.512;2022-07-15T04:50:27;100543.05;;;16.87;56.22
65394;BME280;52002;49.760;6.512;2022-07-15T04:53:11;100538.33;;;16.89;56.26
65394;BME280;52002;49.760;6.512;2022-07-15T04:55:38;100542.02;;;16.92;56.26
65394;BME280;52002;49.760;6.512;2022-07-15T04:58:04;100539.39;;;17.00;56.19
65394;BME280;52002;49.760;6.512;2022-07-15T05:00:30;100547.31;;;17.06;56.00
65394;BME280;52002;49.760;6.512;2022-07-15T05:02:56;100547.67;;;17.11;55.91
65394;BME280;52002;49.760;6.512;2022-07-15T05:05:21;100551.21;;;17.16;55.87
65394;BME280;52002;49.760;6.512;2022-07-15T05:07:47;100549.20;;;17.18;55.82
65394;BME280;52002;49.760;6.512;2022-07-15T05:10:13;100558.63;;;17.26;55.75
65394;BME280;52002;49.760;6.512;2022-07-15T05:12:39;100559.99;;;17.30;55.71
65394;BME280;52002;49.760;6.512;2022-07-15T05:15:05;100563.05;;;17.39;55.56
65394;BME280;52002;49.760;6.512;2022-07-15T05:17:33;100554.94;;;17.48;55.34
65394;BME280;52002;49.760;6.512;2022-07-15T05:20:00;100568.43;;;17.60;55.01
65394;BME280;52002;49.760;6.512;2022-07-15T05:22:26;100568.11;;;17.67;54.76
65394;BME280;52002;49.760;6.512;2022-07-15T05:24:52;100566.77;;;17.75;54.44
65394;BME280;52002;49.760;6.512;2022-07-15T05:27:18;100571.80;;;17.83;54.17
65394;BME280;52002;49.760;6.512;2022-07-15T05:29:44;100569.78;;;17.89;54.03
65394;BME280;52002;49.760;6.512;2022-07-15T05:32:10;100565.55;;;17.95;53.71
65394;BME280;52002;49.760;6.512;2022-07-15T05:34:36;100557.29;;;18.00;53.50
65394;BME280;52002;49.760;6.512;2022-07-15T05:37:02;100567.42;;;18.07;53.35
65394;BME280;52002;49.760;6.512;2022-07-15T05:39:28;100555.07;;;18.12;53.15
65394;BME280;52002;49.760;6.512;2022-07-15T05:41:54;100569.22;;;18.23;52.93
65394;BME280;52002;49.760;6.512;2022-07-15T05:44:20;100564.82;;;18.30;52.73
65394;BME280;52002;49.760;6.512;2022-07-15T05:46:46;100558.88;;;18.34;52.52
65394;BME280;52002;49.760;6.512;2022-07-15T05:49:12;100565.63;;;18.43;52.35
65394;BME280;52002;49.760;6.512;2022-07-15T05:51:38;100563.40;;;18.50;52.32
65394;BME280;52002;49.760;6.512;2022-07-15T05:54:04;100567.92;;;18.58;52.11
65394;BME280;52002;49.760;6.512;2022-07-15T05:56:30;100564.34;;;18.66;51.98
65394;BME280;52002;49.760;6.512;2022-07-15T05:58:56;100570.22;;;18.74;51.82
65394;BME280;52002;49.760;6.512;2022-07-15T06:01:22;100568.33;;;18.78;51.63
65394;BME280;52002;49.760;6.512;2022-07-15T06:03:49;100571.64;;;18.89;51.49
65394;BME280;52002;49.760;6.512;2022-07-15T06:06:15;100571.96;;;18.94;51.33
65394;BME280;52002;49.760;6.512;2022-07-15T06:08:42;100566.22;;;19.01;51.21
65394;BME280;52002;49.760;6.512;2022-07-15T06:11:08;100568.52;;;19.08;51.21
65394;BME280;52002;49.760;6.512;2022-07-15T06:13:36;100569.98;;;19.19;51.05
65394;BME280;52002;49.760;6.512;2022-07-15T06:16:04;100566.56;;;19.25;50.91
65394;BME280;52002;49.760;6.512;2022-07-15T06:18:30;100568.86;;;19.33;50.69
65394;BME280;52002;49.760;6.512;2022-07-15T06:20:56;100580.14;;;19.40;50.55
65394;BME280;52002;49.760;6.512;2022-07-15T06:23:22;100577.77;;;19.41;50.57
65394;BME280;52002;49.760;6.512;2022-07-15T06:25:48;100583.30;;;19.48;50.53
65394;BME280;52002;49.760;6.512;2022-07-15T06:28:14;100575.12;;;19.56;50.49
65394;BME280;52002;49.760;6.512;2022-07-15T06:30:40;100569.26;;;19.68;50.18
65394;BME280;52002;49.760;6.512;2022-07-15T06:33:06;100577.92;;;19.82;50.22
65394;BME280;52002;49.760;6.512;2022-07-15T06:35:32;100581.56;;;19.98;49.97
65394;BME280;52002;49.760;6.512;2022-07-15T06:37:58;100576.57;;;20.06;49.57
65394;BME280;52002;49.760;6.512;2022-07-15T06:40:24;100568.01;;;20.13;49.47
65394;BME280;52002;49.760;6.512;2022-07-15T06:42:50;100568.43;;;20.21;49.19
65394;BME280;52002;49.760;6.512;2022-07-15T06:45:16;100555.99;;;20.26;49.26
65394;BME280;52002;49.760;6.512;2022-07-15T06:47:42;100566.34;;;20.27;49.18
65394;BME280;52002;49.760;6.512;2022-07-15T06:50:09;100566.67;;;20.28;48.93
65394;BME280;52002;49.760;6.512;2022-07-15T06:52:36;100569.14;;;20.34;48.84
65394;BME280;52002;49.760;6.512;2022-07-15T06:55:03;100570.30;;;20.35;48.57
65394;BME280;52002;49.760;6.512;2022-07-15T06:57:29;100567.59;;;20.35;48.43
65394;BME280;52002;49.760;6.512;2022-07-15T06:59:55;100562.49;;;20.36;48.34
65394;BME280;52002;49.760;6.512;2022-07-15T07:02:22;100563.80;;;20.40;48.42
65394;BME280;52002;49.760;6.512;2022-07-15T07:04:49;100565.16;;;20.40;48.48
65394;BME280;52002;49.760;6.512;2022-07-15T07:07:15;100568.53;;;20.42;48.44
65394;BME280;52002;49.760;6.512;2022-07-15T07:09:41;100564.09;;;20.45;48.24
65394;BME280;52002;49.760;6.512;2022-07-15T07:12:08;100568.05;;;20.54;48.17
65394;BME280;52002;49.760;6.512;2022-07-15T07:14:34;100571.00;;;20.63;48.26
65394;BME280;52002;49.760;6.512;2022-07-15T07:17:00;100565.93;;;20.75;48.04
65394;BME280;52002;49.760;6.512;2022-07-15T07:19:26;100569.78;;;20.81;47.88
65394;BME280;52002;49.760;6.512;2022-07-15T07:21:51;100564.92;;;20.87;47.73
65394;BME280;52002;49.760;6.512;2022-07-15T07:24:17;100563.02;;;20.91;47.42
65394;BME280;52002;49.760;6.512;2022-07-15T07:26:43;100566.36;;;20.93;47.07
65394;BME280;52002;49.760;6.512;2022-07-15T07:29:09;100562.89;;;21.00;47.14
65394;BME280;52002;49.760;6.512;2022-07-15T07:31:36;100563.55;;;21.13;46.95
65394;BME280;52002;49.760;6.512;2022-07-15T07:34:02;100559.22;;;21.18;46.93
65394;BME280;52002;49.760;6.512;2022-07-15T07:36:28;100566.34;;;21.30;46.65
65394;BME280;52002;49.760;6.512;2022-07-15T07:38:54;100567.44;;;21.36;46.19
65394;BME280;52002;49.760;6.512;2022-07-15T07:41:20;100561.95;;;21.40;46.09
65394;BME280;52002;49.760;6.512;2022-07-15T07:43:46;100564.12;;;21.41;46.04
65394;BME280;52002;49.760;6.512;2022-07-15T07:46:13;100559.67;;;21.44;45.93
65394;BME280;52002;49.760;6.512;2022-07-15T07:48:39;100558.11;;;21.45;45.71
65394;BME280;52002;49.760;6.512;2022-07-15T07:51:06;100558.70;;;21.41;45.44
65394;BME280;52002;49.760;6.512;2022-07-15T07:53:32;100561.09;;;21.40;45.47
65394;BME280;52002;49.760;6.512;2022-07-15T07:55:58;100558.64;;;21.45;45.22
65394;BME280;52002;49.760;6.512;2022-07-15T07:58:24;100558.48;;;21.53;45.09
65394;BME280;52002;49.760;6.512;2022-07-15T08:00:51;100561.61;;;21.61;44.83
65394;BME280;52002;49.760;6.512;2022-07-15T08:03:21;100563.55;;;21.67;44.88
65394;BME280;52002;49.760;6.512;2022-07-15T08:05:47;100558.33;;;21.65;44.66
65394;BME280;52002;49.760;6.512;2022-07-15T08:08:20;100551.86;;;21.66;44.78
65394;BME280;52002;49.760;6.512;2022-07-15T08:10:49;100547.79;;;21.66;44.49
65394;BME280;52002;49.760;6.512;2022-07-15T08:13:18;100546.33;;;21.71;44.50
65394;BME280;52002;49.760;6.512;2022-07-15T08:15:45;100555.33;;;21.82;44.34
65394;BME280;52002;49.760;6.512;2022-07-15T08:18:12;100558.69;;;21.84;44.12
65394;BME280;52002;49.760;6.512;2022-07-15T08:20:39;100547.12;;;21.75;43.96
65394;BME280;52002;49.760;6.512;2022-07-15T08:23:05;100550.28;;;21.79;44.08
65394;BME280;52002;49.760;6.512;2022-07-15T08:25:34;100553.50;;;21.78;44.27
65394;BME280;52002;49.760;6.512;2022-07-15T08:28:05;100554.19;;;21.87;44.15
65394;BME280;52002;49.760;6.512;2022-07-15T08:30:32;100551.41;;;22.09;43.91
65394;BME280;52002;49.760;6.512;2022-07-15T08:32:59;100557.50;;;22.28;43.45
65394;BME280;52002;49.760;6.512;2022-07-15T08:35:26;100551.45;;;22.16;43.01
65394;BME280;52002;49.760;6.512;2022-07-15T08:37:53;100553.59;;;22.03;43.03
65394;BME280;52002;49.760;6.512;2022-07-15T08:40:19;100556.84;;;21.91;42.66
65394;BME280;52002;49.760;6.512;2022-07-15T08:42:46;100552.48;;;21.97;42.67
65394;BME280;52002;49.760;6.512;2022-07-15T08:45:15;100544.44;;;22.10;42.27
65394;BME280;52002;49.760;6.512;2022-07-15T08:47:44;100551.81;;;22.23;42.14
65394;BME280;52002;49.760;6.512;2022-07-15T08:50:16;100561.53;;;22.39;42.01
65394;BME280;52002;49.760;6.512;2022-07-15T08:52:44;100550.94;;;22.34;42.00
65394;BME280;52002;49.760;6.512;2022-07-15T08:55:11;100550.07;;;22.44;41.96
65394;BME280;52002;49.760;6.512;2022-07-15T08:57:37;100553.62;;;22.62;41.44
65394;BME280;52002;49.760;6.512;2022-07-15T09:00:06;100549.60;;;22.82;41.05
65394;BME280;52002;49.760;6.512;2022-07-15T09:02:34;100542.44;;;23.06;40.72
65394;BME280;52002;49.760;6.512;2022-07-15T09:05:23;100541.86;;;23.24;40.13
65394;BME280;52002;49.760;6.512;2022-07-15T09:08:10;100542.94;;;23.36;40.07
65394;BME280;52002;49.760;6.512;2022-07-15T09:10:59;100542.40;;;23.43;39.00
65394;BME280;52002;49.760;6.512;2022-07-15T09:13:39;100540.72;;;23.42;38.48
65394;BME280;52002;49.760;6.512;2022-07-15T09:16:08;100539.27;;;23.46;38.11
65394;BME280;52002;49.760;6.512;2022-07-15T09:18:43;100543.47;;;23.69;37.20
65394;BME280;52002;49.760;6.512;2022-07-15T09:21:18;100537.17;;;23.82;36.81
65394;BME280;52002;49.760;6.512;2022-07-15T09:23:54;100537.02;;;23.93;36.50
65394;BME280;52002;49.760;6.512;2022-07-15T09:26:31;100524.98;;;24.05;36.23
65394;BME280;52002;49.760;6.512;2022-07-15T09:29:00;100528.52;;;24.19;35.79
65394;BME280;52002;49.760;6.512;2022-07-15T09:31:35;100532.92;;;24.20;35.92
65394;BME280;52002;49.760;6.512;2022-07-15T09:34:23;100527.58;;;24.16;35.76
65394;BME280;52002;49.760;6.512;2022-07-15T09:36:51;100528.95;;;24.09;35.91
65394;BME280;52002;49.760;6.512;2022-07-15T09:39:23;100532.11;;;24.06;35.19
65394;BME280;52002;49.760;6.512;2022-07-15T09:41:51;100527.21;;;23.99;34.90
65394;BME280;52002;49.760;6.512;2022-07-15T09:44:20;100515.14;;;23.97;35.26
65394;BME280;52002;49.760;6.512;2022-07-15T09:47:02;100522.05;;;24.06;35.24
65394;BME280;52002;49.760;6.512;2022-07-15T09:49:32;100519.08;;;24.15;35.01
65394;BME280;52002;49.760;6.512;2022-07-15T09:52:08;100513.89;;;24.29;34.71
65394;BME280;52002;49.760;6.512;2022-07-15T09:54:38;100512.04;;;24.46;34.61
65394;BME280;52002;49.760;6.512;2022-07-15T09:57:12;100502.92;;;24.65;34.22
65394;BME280;52002;49.760;6.512;2022-07-15T09:59:36;100505.76;;;24.75;34.16
65394;BME280;52002;49.760;6.512;2022-07-15T10:02:02;100515.32;;;24.68;33.82
65394;BME280;52002;49.760;6.512;2022-07-15T10:04:31;100519.43;;;24.38;33.80
65394;BME280;52002;49.760;6.512;2022-07-15T10:06:58;100513.83;;;24.20;33.94
65394;BME280;52002;49.760;6.512;2022-07-15T10:09:27;100512.20;;;24.05;33.96
65394;BME280;52002;49.760;6.512;2022-07-15T10:12:13;100499.05;;;24.12;33.68
65394;BME280;52002;49.760;6.512;2022-07-15T10:15:08;100505.84;;;24.25;33.84
65394;BME280;52002;49.760;6.512;2022-07-15T10:27:03;100501.13;;;25.23;32.09
65394;BME280;52002;49.760;6.512;2022-07-15T10:29:42;100509.23;;;25.53;32.03
65394;BME280;52002;49.760;6.512;2022-07-15T10:32:09;100508.97;;;25.38;31.55
65394;BME280;52002;49.760;6.512;2022-07-15T10:34:36;100507.95;;;25.23;31.90
65394;BME280;52002;49.760;6.512;2022-07-15T10:37:09;100497.28;;;25.15;31.89
65394;BME280;52002;49.760;6.512;2022-07-15T10:39:50;100498.31;;;25.05;31.51
65394;BME280;52002;49.760;6.512;2022-07-15T10:42:20;100502.35;;;24.95;31.65
65394;BME280;52002;49.760;6.512;2022-07-15T10:45:04;100501.92;;;24.98;31.54
65394;BME280;52002;49.760;6.512;2022-07-15T10:47:32;100506.33;;;24.99;31.28
65394;BME280;52002;49.760;6.512;2022-07-15T10:49:59;100494.78;;;25.13;31.22
65394;BME280;52002;49.760;6.512;2022-07-15T10:52:30;100490.06;;;25.27;31.08
65394;BME280;52002;49.760;6.512;2022-07-15T10:55:03;100494.56;;;25.40;31.04
65394;BME280;52002;49.760;6.512;2022-07-15T11:05:41;100482.19;;;25.12;30.62
65394;BME280;52002;49.760;6.512;2022-07-15T11:13:47;100483.52;;;25.28;30.31
65394;BME280;52002;49.760;6.512;2022-07-15T11:16:16;100481.70;;;25.31;30.37
65394;BME280;52002;49.760;6.512;2022-07-15T11:18:51;100478.23;;;25.34;30.40
65394;BME280;52002;49.760;6.512;2022-07-15T11:21:20;100473.38;;;25.36;30.08
65394;BME280;52002;49.760;6.512;2022-07-15T11:23:47;100474.42;;;25.25;29.89
65394;BME280;52002;49.760;6.512;2022-07-15T11:26:15;100467.40;;;25.36;29.78
65394;BME280;52002;49.760;6.512;2022-07-15T11:28:55;100460.53;;;25.43;29.93
65394;BME280;52002;49.760;6.512;2022-07-15T11:31:23;100458.69;;;25.46;29.65
65394;BME280;52002;49.760;6.512;2022-07-15T11:33:53;100454.18;;;25.58;29.69
65394;BME280;52002;49.760;6.512;2022-07-15T11:36:21;100455.24;;;25.67;29.71
65394;BME280;52002;49.760;6.512;2022-07-15T11:38:48;100461.25;;;25.66;29.46
65394;BME280;52002;49.760;6.512;2022-07-15T11:41:15;100450.39;;;25.59;29.63
65394;BME280;52002;49.760;6.512;2022-07-15T11:44:07;100454.39;;;25.57;29.62
65394;BME280;52002;49.760;6.512;2022-07-15T11:46:54;100462.66;;;25.50;29.63
65394;BME280;52002;49.760;6.512;2022-07-15T11:49:37;100461.38;;;25.27;29.50
65394;BME280;52002;49.760;6.512;2022-07-15T11:52:21;100459.14;;;25.18;29.88
65394;BME280;52002;49.760;6.512;2022-07-15T11:54:49;100462.26;;;25.21;29.83
65394;BME280;52002;49.760;6.512;2022-07-15T11:57:15;100459.54;;;25.30;29.56
65394;BME280;52002;49.760;6.512;2022-07-15T11:59:54;100457.87;;;25.29;29.46
65394;BME280;52002;49.760;6.512;2022-07-15T12:02:25;100454.08;;;25.30;29.32
65394;BME280;52002;49.760;6.512;2022-07-15T12:05:04;100462.14;;;25.35;28.87
65394;BME280;52002;49.760;6.512;2022-07-15T12:07:44;100453.73;;;25.36;29.08
65394;BME280;52002;49.760;6.512;2022-07-15T12:10:09;100451.11;;;25.48;28.80
65394;BME280;52002;49.760;6.512;2022-07-15T12:12:40;100450.70;;;25.60;29.08
65394;BME280;52002;49.760;6.512;2022-07-15T12:15:20;100452.53;;;25.76;28.68
65394;BME280;52002;49.760;6.512;2022-07-15T12:17:46;100446.46;;;25.93;28.52
65394;BME280;52002;49.760;6.512;2022-07-15T12:20:13;100446.69;;;26.00;28.60
65394;BME280;52002;49.760;6.512;2022-07-15T12:25:31;100445.52;;;25.99;28.34
65394;BME280;52002;49.760;6.512;2022-07-15T12:27:57;100446.46;;;25.93;28.39
65394;BME280;52002;49.760;6.512;2022-07-15T12:30:35;100443.11;;;25.90;28.40
65394;BME280;52002;49.760;6.512;2022-07-15T12:33:21;100437.64;;;25.90;28.32
65394;BME280;52002;49.760;6.512;2022-07-15T12:35:46;100437.48;;;25.85;27.97
65394;BME280;52002;49.760;6.512;2022-07-15T12:38:31;100448.87;;;25.82;28.01
65394;BME280;52002;49.760;6.512;2022-07-15T12:41:06;100448.41;;;25.67;27.50
65394;BME280;52002;49.760;6.512;2022-07-15T12:43:47;100431.39;;;25.55;27.99
65394;BME280;52002;49.760;6.512;2022-07-15T12:46:15;100422.75;;;25.58;28.20
65394;BME280;52002;49.760;6.512;2022-07-15T12:48:45;100417.27;;;25.68;28.09
65394;BME280;52002;49.760;6.512;2022-07-15T12:51:14;100410.05;;;25.73;28.37
65394;BME280;52002;49.760;6.512;2022-07-15T12:53:41;100417.83;;;25.86;28.02
65394;BME280;52002;49.760;6.512;2022-07-15T12:56:07;100411.03;;;25.98;28.15
65394;BME280;52002;49.760;6.512;2022-07-15T12:58:34;100417.72;;;26.02;27.45
65394;BME280;52002;49.760;6.512;2022-07-15T13:01:11;100412.86;;;26.04;27.59
65394;BME280;52002;49.760;6.512;2022-07-15T13:03:40;100417.77;;;26.11;27.31
65394;BME280;52002;49.760;6.512;2022-07-15T13:06:06;100401.77;;;26.17;27.13
65394;BME280;52002;49.760;6.512;2022-07-15T13:08:35;100406.91;;;26.35;27.03
65394;BME280;52002;49.760;6.512;2022-07-15T13:11:05;100408.28;;;26.56;26.90
65394;BME280;52002;49.760;6.512;2022-07-15T13:13:35;100412.17;;;26.58;27.11
65394;BME280;52002;49.760;6.512;2022-07-15T13:16:03;100411.82;;;26.45;27.13
65394;BME280;52002;49.760;6.512;2022-07-15T13:18:31;100410.49;;;26.35;27.31
65394;BME280;52002;49.760;6.512;2022-07-15T13:20:58;100407.66;;;26.33;27.01
65394;BME280;52002;49.760;6.512;2022-07-15T13:23:25;100402.03;;;26.37;27.28